createdAt,value
2022-11-03T00:02:46.358Z,4.13
2022-11-03T00:05:51.480Z,4.20
2022-11-03T00:08:42.410Z,4.23
2022-11-03T00:11:28.648Z,4.05
2022-11-03T00:14:15.115Z,4.22
2022-11-03T00:17:01.206Z,4.22
2022-11-03T00:19:47.463Z,4.19
2022-11-03T00:22:33.928Z,4.07
2022-11-03T00:25:20.419Z,4.19
2022-11-03T00:28:06.713Z,4.02
2022-11-03T00:30:53.004Z,3.95
2022-11-03T00:33:40.376Z,4.17
2022-11-03T00:36:32.103Z,4.24
2022-11-03T00:39:18.705Z,4.09
2022-11-03T00:42:05.047Z,4.30
2022-11-03T00:44:51.247Z,4.01
2022-11-03T00:47:57.714Z,4.25
2022-11-03T00:50:44.401Z,4.13
2022-11-03T00:53:32.296Z,3.94
2022-11-03T00:56:22.097Z,3.96
2022-11-03T00:59:09.983Z,3.98
2022-11-03T01:01:56.806Z,3.95
2022-11-03T01:05:01.717Z,4.05
2022-11-03T01:07:48.027Z,3.83
2022-11-03T01:10:36.617Z,3.60
2022-11-03T01:13:23.067Z,3.59
2022-11-03T01:16:09.548Z,3.56
2022-11-03T01:18:55.808Z,3.44
2022-11-03T01:21:43.657Z,3.38
2022-11-03T01:24:29.934Z,3.36
2022-11-03T01:27:18.975Z,3.47
2022-11-03T01:30:05.598Z,3.50
2022-11-03T01:32:52.492Z,3.49
2022-11-03T01:35:38.889Z,3.26
2022-11-03T01:38:25.196Z,3.36
2022-11-03T01:41:15.808Z,3.21
2022-11-03T01:44:35.075Z,3.47
2022-11-03T01:47:28.161Z,3.42
2022-11-03T01:50:18.751Z,3.29
2022-11-03T01:53:05.351Z,3.38
2022-11-03T01:55:52.025Z,3.40
2022-11-03T01:58:41.469Z,3.48
2022-11-03T02:01:28.531Z,3.36
2022-11-03T02:04:23.966Z,3.38
2022-11-03T02:07:35.512Z,3.43
2022-11-03T02:10:23.693Z,3.45
2022-11-03T02:13:18.459Z,3.58
2022-11-03T02:16:05.297Z,3.32
2022-11-03T02:18:53.287Z,3.34
2022-11-03T02:21:56.206Z,3.26
2022-11-03T02:25:02.100Z,3.19
2022-11-03T02:27:48.924Z,3.25
2022-11-03T02:31:01.249Z,3.26
2022-11-03T02:34:25.542Z,3.30
2022-11-03T02:37:22.020Z,3.10
2022-11-03T02:40:13.709Z,3.02
2022-11-03T02:43:01.943Z,2.86
2022-11-03T02:45:50.588Z,2.99
2022-11-03T02:48:37.487Z,3.20
2022-11-03T02:51:24.977Z,3.18
2022-11-03T02:54:21.753Z,3.08
2022-11-03T02:57:18.643Z,2.86
2022-11-03T03:00:09.351Z,2.95
2022-11-03T03:03:09.352Z,2.83
2022-11-03T03:06:05.107Z,2.94
2022-11-03T03:08:57.283Z,3.09
2022-11-03T03:11:47.494Z,3.04
2022-11-03T03:14:39.295Z,2.93
2022-11-03T03:17:44.390Z,3.10
2022-11-03T03:20:50.847Z,2.80
2022-11-03T03:23:47.996Z,2.90
2022-11-03T03:26:43.148Z,3.10
2022-11-03T03:29:37.787Z,2.96
2022-11-03T03:32:27.944Z,2.98
2022-11-03T03:35:19.005Z,2.79
2022-11-03T03:38:09.867Z,2.82
2022-11-03T03:40:59.756Z,2.92
2022-11-03T03:43:46.474Z,2.79
2022-11-03T03:46:37.928Z,2.82
2022-11-03T03:49:24.683Z,2.70
2022-11-03T03:52:11.630Z,2.53
2022-11-03T03:54:57.789Z,2.82
2022-11-03T03:57:44.855Z,2.47
2022-11-03T04:00:31.118Z,2.99
2022-11-03T04:03:20.296Z,3.01
2022-11-03T04:06:06.780Z,2.99
2022-11-03T04:08:52.984Z,3.19
2022-11-03T04:11:58.218Z,2.97
2022-11-03T04:15:03.403Z,2.94
2022-11-03T04:18:09.234Z,2.90
2022-11-03T04:21:14.495Z,2.83
2022-11-03T04:24:00.774Z,3.04
2022-11-03T04:26:47.179Z,2.99
2022-11-03T04:29:33.728Z,2.85
2022-11-03T04:32:20.203Z,2.81
2022-11-03T04:35:27.772Z,2.87
2022-11-03T04:38:13.810Z,3.04
2022-11-03T04:41:00.206Z,2.90
2022-11-03T04:43:47.244Z,2.90
2022-11-03T04:46:33.404Z,2.80
2022-11-03T04:49:23.142Z,3.25
2022-11-03T04:52:19.820Z,3.19
2022-11-03T04:55:10.313Z,3.19
2022-11-03T04:58:07.043Z,2.94
2022-11-03T05:00:56.606Z,2.98
2022-11-03T05:03:44.828Z,3.10
2022-11-03T05:06:31.473Z,3.09
2022-11-03T05:09:23.038Z,3.02
2022-11-03T05:12:10.104Z,2.99
2022-11-03T05:14:58.914Z,3.12
2022-11-03T05:17:45.335Z,3.22
2022-11-03T05:20:37.467Z,3.32
2022-11-03T05:23:23.959Z,3.17
2022-11-03T05:26:25.604Z,3.17
2022-11-03T05:29:29.247Z,3.23
2022-11-03T05:32:24.481Z,2.99
2022-11-03T05:35:22.962Z,2.81
2022-11-03T05:38:14.737Z,3.18
2022-11-03T05:41:01.654Z,2.83
2022-11-03T05:43:56.394Z,3.17
2022-11-03T05:46:42.736Z,2.64
2022-11-03T05:49:30.132Z,2.94
2022-11-03T05:52:22.387Z,3.06
2022-11-03T05:55:27.231Z,2.80
2022-11-03T05:58:29.014Z,2.93
2022-11-03T06:01:34.328Z,2.82
2022-11-03T06:04:38.659Z,2.52
2022-11-03T06:07:29.853Z,2.70
2022-11-03T06:10:35.915Z,2.68
2022-11-03T06:13:37.353Z,2.74
2022-11-03T06:16:40.131Z,2.69
2022-11-03T06:19:36.844Z,2.71
2022-11-03T06:22:35.334Z,2.78
2022-11-03T06:25:27.947Z,2.89
2022-11-03T06:28:30.264Z,3.05
2022-11-03T06:31:23.154Z,3.13
2022-11-03T06:34:22.663Z,3.16
2022-11-03T06:37:16.587Z,3.04
2022-11-03T06:40:15.152Z,3.22
2022-11-03T06:43:14.625Z,3.06
2022-11-03T06:46:05.948Z,3.24
2022-11-03T06:48:54.903Z,3.44
2022-11-03T06:51:41.407Z,3.27
2022-11-03T06:54:27.984Z,3.63
2022-11-03T06:57:17.330Z,3.49
2022-11-03T07:00:33.629Z,3.84
2022-11-03T07:03:27.159Z,3.79
2022-11-03T07:06:24.602Z,4.00
2022-11-03T07:09:16.763Z,3.95
2022-11-03T07:12:03.399Z,4.13
2022-11-03T07:14:49.757Z,4.12
2022-11-03T07:17:35.936Z,4.19
2022-11-03T07:20:22.210Z,4.08
2022-11-03T07:23:15.386Z,4.58
2022-11-03T07:26:02.043Z,4.64
2022-11-03T07:28:48.554Z,4.84
2022-11-03T07:31:34.704Z,4.95
2022-11-03T07:34:25.386Z,5.09
2022-11-03T07:37:20.166Z,5.16
2022-11-03T07:40:13.258Z,5.41
2022-11-03T07:43:02.091Z,5.32
2022-11-03T07:45:49.547Z,5.75
2022-11-03T07:48:46.468Z,5.89
2022-11-03T07:51:34.968Z,5.63
2022-11-03T07:54:26.909Z,5.85
2022-11-03T07:57:16.476Z,6.14
2022-11-03T08:00:10.772Z,6.21
2022-11-03T08:03:01.688Z,6.08
2022-11-03T08:05:48.084Z,6.27
2022-11-03T08:08:34.643Z,6.43
2022-11-03T08:11:24.686Z,6.42
2022-11-03T08:14:14.602Z,6.45
2022-11-03T08:17:01.045Z,6.76
2022-11-03T08:19:47.176Z,6.72
2022-11-03T08:22:33.575Z,6.81
2022-11-03T08:25:20.067Z,7.04
2022-11-03T08:28:06.303Z,7.19
2022-11-03T08:30:52.749Z,7.22
2022-11-03T08:33:38.869Z,7.23
2022-11-03T08:36:25.518Z,7.61
2022-11-03T08:39:11.998Z,7.53
2022-11-03T08:41:58.225Z,7.74
2022-11-03T08:44:44.348Z,7.92
2022-11-03T08:47:30.912Z,8.06
2022-11-03T08:50:17.440Z,8.38
2022-11-03T08:53:03.925Z,8.49
2022-11-03T08:55:50.431Z,8.78
2022-11-03T08:58:36.649Z,8.94
2022-11-03T09:01:22.902Z,9.12
2022-11-03T09:04:09.326Z,9.12
2022-11-03T09:06:55.855Z,9.29
2022-11-03T09:12:48.774Z,9.51
2022-11-03T09:15:35.308Z,9.61
2022-11-03T09:18:22.677Z,9.78
2022-11-03T09:21:09.023Z,9.98
2022-11-03T09:23:55.889Z,10.10
2022-11-03T09:26:42.316Z,10.04
2022-11-03T09:29:36.393Z,10.10
2022-11-03T09:32:32.361Z,10.31
2022-11-03T09:35:18.758Z,10.52
2022-11-03T09:38:07.672Z,10.57
2022-11-03T09:40:55.223Z,10.70
2022-11-03T09:43:41.637Z,10.82
2022-11-03T09:46:29.734Z,11.05
2022-11-03T09:49:16.931Z,11.28
2022-11-03T09:52:04.503Z,11.37
2022-11-03T09:54:54.207Z,11.60
2022-11-03T09:57:40.834Z,11.64
2022-11-03T10:00:27.455Z,11.64
2022-11-03T10:03:18.516Z,11.80
2022-11-03T10:06:05.091Z,11.89
2022-11-03T10:08:51.702Z,12.09
2022-11-03T10:11:38.503Z,12.08
2022-11-03T10:14:24.677Z,12.41
2022-11-03T10:17:18.017Z,12.40
2022-11-03T10:20:11.208Z,12.62
2022-11-03T10:22:57.711Z,12.60
2022-11-03T10:25:45.348Z,12.80
2022-11-03T10:28:32.014Z,12.84
2022-11-03T10:31:21.198Z,12.94
2022-11-03T10:34:39.738Z,13.14
2022-11-03T10:37:27.357Z,13.13
2022-11-03T10:40:47.681Z,13.17
2022-11-03T10:43:34.818Z,13.27
2022-11-03T10:46:44.626Z,12.94
2022-11-03T10:49:32.466Z,12.98
2022-11-03T10:52:24.931Z,13.22
2022-11-03T10:55:11.504Z,13.09
2022-11-03T10:57:58.509Z,13.27
2022-11-03T11:00:45.379Z,13.21
2022-11-03T11:03:32.629Z,13.35
2022-11-03T11:06:26.560Z,13.31
2022-11-03T11:09:16.683Z,13.33
2022-11-03T11:12:19.040Z,13.30
2022-11-03T11:15:44.299Z,13.18
2022-11-03T11:18:30.716Z,13.16
2022-11-03T11:21:20.004Z,13.19
2022-11-03T11:24:10.384Z,13.28
2022-11-03T11:26:56.893Z,13.29
2022-11-03T11:29:43.479Z,13.07
2022-11-03T11:32:41.739Z,13.51
2022-11-03T11:35:28.201Z,13.51
2022-11-03T11:38:48.585Z,13.59
2022-11-03T11:42:13.854Z,13.69
2022-11-03T11:45:03.035Z,13.82
2022-11-03T11:47:50.499Z,13.87
2022-11-03T11:50:36.959Z,13.74
2022-11-03T11:53:30.717Z,13.69
2022-11-03T11:56:18.922Z,13.79
2022-11-03T11:59:05.055Z,13.80
2022-11-03T12:01:53.575Z,13.87
2022-11-03T12:04:40.075Z,13.68
2022-11-03T12:07:36.655Z,13.73
2022-11-03T12:10:30.113Z,13.94
2022-11-03T12:13:36.998Z,13.94
2022-11-03T12:16:36.618Z,13.90
2022-11-03T12:19:42.612Z,14.01
2022-11-03T12:22:29.352Z,13.96
2022-11-03T12:25:36.568Z,13.87
2022-11-03T12:28:34.168Z,13.91
2022-11-03T12:31:20.909Z,13.84
2022-11-03T12:34:07.446Z,13.75
2022-11-03T12:36:56.320Z,13.61
2022-11-03T12:39:42.685Z,13.51
2022-11-03T12:42:28.913Z,13.56
2022-11-03T12:45:15.336Z,13.37
2022-11-03T12:48:01.644Z,13.50
2022-11-03T12:50:47.997Z,13.28
2022-11-03T12:53:34.376Z,13.44
2022-11-03T12:56:20.699Z,13.36
2022-11-03T12:59:07.860Z,13.33
2022-11-03T13:01:54.621Z,13.37
2022-11-03T13:04:41.194Z,13.50
2022-11-03T13:07:33.481Z,13.64
2022-11-03T13:10:21.323Z,13.70
2022-11-03T13:13:07.869Z,13.53
2022-11-03T13:15:54.927Z,13.83
2022-11-03T13:18:41.425Z,13.75
2022-11-03T13:21:28.142Z,13.61
2022-11-03T13:24:14.329Z,13.63
2022-11-03T13:27:00.558Z,13.56
2022-11-03T13:29:46.820Z,13.46
2022-11-03T13:32:33.311Z,13.49
2022-11-03T13:35:19.964Z,13.39
2022-11-03T13:38:06.253Z,13.23
2022-11-03T13:40:57.755Z,13.29
2022-11-03T13:43:44.477Z,13.06
2022-11-03T13:46:30.866Z,13.08
2022-11-03T13:52:26.800Z,13.00
2022-11-03T14:01:25.903Z,13.03
2022-11-03T14:07:19.210Z,12.95
2022-11-03T14:10:06.053Z,12.97
2022-11-03T14:12:52.620Z,13.16
2022-11-03T14:15:38.935Z,12.99
2022-11-03T14:18:25.329Z,12.82
2022-11-03T14:21:11.646Z,12.78
2022-11-03T14:23:58.102Z,12.49
2022-11-03T14:26:44.364Z,12.51
2022-11-03T14:29:30.794Z,12.50
2022-11-03T14:32:18.155Z,12.31
2022-11-03T14:35:05.157Z,12.39
2022-11-03T14:37:51.724Z,12.29
2022-11-03T14:40:56.520Z,12.11
2022-11-03T14:43:42.719Z,12.15
2022-11-03T14:46:29.564Z,12.21
2022-11-03T14:49:15.990Z,12.20
2022-11-03T14:52:04.429Z,12.22
2022-11-03T14:54:52.081Z,12.17
2022-11-03T14:57:38.500Z,12.17
2022-11-03T15:00:24.802Z,12.15
2022-11-03T15:03:11.284Z,12.09
2022-11-03T15:05:57.559Z,11.87
2022-11-03T15:08:43.991Z,11.96
2022-11-03T15:11:30.715Z,11.99
2022-11-03T15:14:17.018Z,12.01
2022-11-03T15:17:03.242Z,12.15
2022-11-03T15:19:49.619Z,12.10
2022-11-03T15:25:42.026Z,11.85
2022-11-03T15:28:28.516Z,12.07
2022-11-03T15:31:14.819Z,11.85
2022-11-03T15:34:04.426Z,11.80
2022-11-03T15:36:54.195Z,11.63
2022-11-03T15:39:41.557Z,11.44
2022-11-03T15:42:28.312Z,11.47
2022-11-03T15:45:16.377Z,11.34
2022-11-03T15:48:04.453Z,11.20
2022-11-03T15:50:51.620Z,11.27
2022-11-03T15:53:38.748Z,11.24
2022-11-03T15:56:26.096Z,11.13
2022-11-03T16:03:38.837Z,11.12
2022-11-03T16:06:46.721Z,11.10
2022-11-03T16:09:31.608Z,11.14
2022-11-03T16:12:17.896Z,11.10
2022-11-03T16:15:04.690Z,11.05
2022-11-03T16:17:51.099Z,10.93
2022-11-03T16:20:37.640Z,10.97
2022-11-03T16:23:24.680Z,10.96
2022-11-03T16:26:11.127Z,10.77
2022-11-03T16:28:58.385Z,10.63
2022-11-03T16:31:46.834Z,10.75
2022-11-03T16:34:33.113Z,10.63
2022-11-03T16:37:19.463Z,10.72
2022-11-03T16:40:06.460Z,10.65
2022-11-03T16:42:52.612Z,10.50
2022-11-03T16:45:38.943Z,10.54
2022-11-03T16:48:25.168Z,10.66
2022-11-03T16:51:11.200Z,10.62
2022-11-03T16:53:59.584Z,10.61
2022-11-03T16:56:50.569Z,10.33
2022-11-03T16:59:40.016Z,10.55
2022-11-03T17:02:27.887Z,10.80
2022-11-03T17:05:17.390Z,10.85
2022-11-03T17:08:03.871Z,10.84
2022-11-03T17:10:50.443Z,10.85
2022-11-03T17:13:36.737Z,10.68
2022-11-03T17:16:23.225Z,10.67
2022-11-03T17:19:10.019Z,10.69
2022-11-03T17:21:57.113Z,10.44
2022-11-03T17:24:43.849Z,10.60
2022-11-03T17:27:41.692Z,10.66
2022-11-03T17:30:30.807Z,10.72
2022-11-03T17:33:19.547Z,10.60
2022-11-03T17:36:06.348Z,10.55
2022-11-03T17:38:52.884Z,10.60
2022-11-03T17:41:39.090Z,10.90
2022-11-03T17:44:25.310Z,10.77
2022-11-03T17:47:11.767Z,10.73
2022-11-03T17:49:57.992Z,10.33
2022-11-03T17:52:46.633Z,10.48
2022-11-03T17:55:33.222Z,10.15
2022-11-03T17:58:32.411Z,10.37
2022-11-03T18:01:25.049Z,10.30
2022-11-03T18:07:19.228Z,10.16
2022-11-03T18:10:06.811Z,10.06
2022-11-03T18:13:15.555Z,10.24
2022-11-03T18:16:11.893Z,10.24
2022-11-03T18:18:58.707Z,10.06
2022-11-03T18:21:45.447Z,10.26
2022-11-03T18:24:33.175Z,10.25
2022-11-03T18:27:24.963Z,10.18
2022-11-03T18:30:16.640Z,10.36
2022-11-03T18:33:03.230Z,10.19
2022-11-03T18:35:49.737Z,10.14
2022-11-03T18:38:37.170Z,10.27
2022-11-03T18:41:41.925Z,10.21
2022-11-03T18:44:29.969Z,10.24
2022-11-03T18:47:16.824Z,10.30
2022-11-03T18:50:03.888Z,10.30
2022-11-03T18:52:51.924Z,10.12
2022-11-03T18:55:38.438Z,10.51
2022-11-03T18:58:25.743Z,10.52
2022-11-03T19:01:21.965Z,10.36
2022-11-03T19:04:14.852Z,10.32
2022-11-03T19:07:02.838Z,10.23
2022-11-03T19:09:49.382Z,10.26
2022-11-03T19:12:39.211Z,10.22
2022-11-03T19:15:25.995Z,10.19
2022-11-03T19:18:13.089Z,10.24
2022-11-03T19:20:59.530Z,10.32
2022-11-03T19:23:48.176Z,10.15
2022-11-03T19:26:43.704Z,10.08
2022-11-03T19:29:34.377Z,10.24
2022-11-03T19:32:27.696Z,10.30
2022-11-03T19:35:19.119Z,10.28
2022-11-03T19:38:12.155Z,10.21
2022-11-03T19:41:16.910Z,9.89
2022-11-03T19:44:09.241Z,9.93
2022-11-03T19:46:55.773Z,9.85
2022-11-03T19:49:42.342Z,9.91
2022-11-03T19:52:30.338Z,9.98
2022-11-03T19:55:18.811Z,9.88
2022-11-03T19:58:15.686Z,10.16
2022-11-03T20:01:08.226Z,10.18
2022-11-03T20:03:55.017Z,9.95
2022-11-03T20:06:41.525Z,10.07
2022-11-03T20:12:20.041Z,10.12
2022-11-03T20:15:19.019Z,10.05
2022-11-03T20:18:06.470Z,9.90
2022-11-03T20:20:52.888Z,10.00
2022-11-03T20:23:39.332Z,9.80
2022-11-03T20:26:26.769Z,9.74
2022-11-03T20:29:15.048Z,9.92
2022-11-03T20:32:01.131Z,9.68
2022-11-03T20:34:47.721Z,9.67
2022-11-03T20:37:34.058Z,9.65
2022-11-03T20:40:23.716Z,9.83
2022-11-03T20:43:26.908Z,9.68
2022-11-03T20:46:24.583Z,9.96
2022-11-03T20:49:10.956Z,9.88
2022-11-03T20:51:57.202Z,9.84
2022-11-03T20:54:43.469Z,9.98
2022-11-03T20:57:29.516Z,9.94
2022-11-03T21:00:22.186Z,9.84
2022-11-03T21:03:58.388Z,9.92
2022-11-03T21:06:46.862Z,9.56
2022-11-03T21:09:33.042Z,9.55
2022-11-03T21:12:19.497Z,9.93
2022-11-03T21:15:35.550Z,10.02
2022-11-03T21:18:40.380Z,10.20
2022-11-03T21:21:26.659Z,10.31
2022-11-03T21:24:13.250Z,10.44
2022-11-03T21:26:59.611Z,10.54
2022-11-03T21:29:58.930Z,10.80
2022-11-03T21:32:46.150Z,10.86
2022-11-03T21:35:32.347Z,10.89
2022-11-03T21:38:19.181Z,11.23
2022-11-03T21:41:26.308Z,11.24
2022-11-03T21:44:15.287Z,11.23
2022-11-03T21:47:01.805Z,11.23
2022-11-03T21:49:49.268Z,11.08
2022-11-03T21:52:35.756Z,11.16
2022-11-03T21:55:22.249Z,10.98
2022-11-03T21:58:09.031Z,11.02
2022-11-03T22:01:01.032Z,10.88
2022-11-03T22:03:47.349Z,10.92
2022-11-03T22:06:33.639Z,10.99
2022-11-03T22:09:19.921Z,10.94
2022-11-03T22:12:06.670Z,11.11
2022-11-03T22:15:11.917Z,11.12
2022-11-03T22:18:02.681Z,10.96
2022-11-03T22:21:07.574Z,11.04
2022-11-03T22:24:13.784Z,10.83
2022-11-03T22:27:00.513Z,10.88
2022-11-03T22:30:05.458Z,10.92
2022-11-03T22:32:53.795Z,10.76
2022-11-03T22:35:59.085Z,10.85
2022-11-03T22:39:04.089Z,10.92
2022-11-03T22:42:08.972Z,10.88
2022-11-03T22:45:27.485Z,10.73
2022-11-03T22:48:13.854Z,10.66
2022-11-03T22:51:09.122Z,10.79
2022-11-03T22:54:10.487Z,10.69
2022-11-03T22:56:56.922Z,10.68
2022-11-03T22:59:43.311Z,10.68
2022-11-03T23:02:29.677Z,10.58
2022-11-03T23:05:16.063Z,10.51
2022-11-03T23:08:02.633Z,10.54
2022-11-03T23:10:49.200Z,10.53
2022-11-03T23:13:36.386Z,10.61
2022-11-03T23:16:25.516Z,10.59
2022-11-03T23:19:32.433Z,10.48
2022-11-03T23:22:18.656Z,10.54
2022-11-03T23:25:05.671Z,10.68
2022-11-03T23:27:53.001Z,10.56
2022-11-03T23:30:39.487Z,10.68
2022-11-03T23:33:25.961Z,10.66
2022-11-03T23:36:14.590Z,10.60
2022-11-03T23:39:01.942Z,10.68
2022-11-03T23:41:50.336Z,10.51
2022-11-03T23:45:08.898Z,10.49
2022-11-03T23:48:13.787Z,10.66
2022-11-03T23:50:59.832Z,10.53
2022-11-03T23:53:47.272Z,10.43
2022-11-03T23:56:58.129Z,10.54
